Time;durP1;ratioP1;P1;durP2;ratioP2;P2;SDS_P1;SDS_P2;PMS_P1;PMS_P2;Temp;Humidity;BMP_temperature;BMP_pressure;BME280_temperature;BME280_humidity;BME280_pressure;Samples;Min_cycle;Max_cycle;Signal;HPM_P1;HPM_P2
2021/12/16 00:09:59;;;;;;;21.00;18.80;;;6.00;90.70;;;4.63;92.18;99634.78;5088791;28;20571;-67
2021/12/16 00:32:30;;;;;;;20.43;17.37;;;6.10;89.50;;;4.64;89.61;99621.22;5006244;28;20515;-67
2021/12/16 00:34:58;;;;;;;21.13;18.50;;;6.10;89.40;;;4.70;89.93;99633.22;5063066;28;20460;-67
2021/12/16 00:37:27;;;;;;;20.93;17.90;;;6.00;89.90;;;4.53;90.32;99624.00;5098817;27;20479;-67
2021/12/16 00:39:55;;;;;;;21.77;18.30;;;6.00;89.70;;;4.68;90.28;99628.00;5089615;28;20550;-66
2021/12/16 00:42:33;;;;;;;23.27;18.87;;;6.00;90.10;;;4.60;90.51;99635.03;5104622;27;20456;-66
2021/12/16 00:45:09;;;;;;;21.13;18.80;;;6.00;90.10;;;4.64;90.86;99641.81;5088810;28;20481;-67
2021/12/16 00:47:49;;;;;;;23.57;18.93;;;6.00;90.90;;;4.67;90.68;99642.38;5089926;28;20491;-67
2021/12/16 00:54:06;;;;;;;22.10;18.03;;;6.00;90.30;;;4.56;91.43;99650.53;5089196;28;20467;-67
2021/12/16 00:55:59;;;;;;;25.60;20.50;;;5.90;91.40;;;4.42;92.97;99637.53;5091291;28;21112;-67
2021/12/16 00:58:33;;;;;;;26.03;20.60;;;5.90;92.00;;;4.31;94.81;99651.84;5081410;28;21083;-67
2021/12/16 01:01:08;;;;;;;26.30;21.10;;;5.70;93.10;;;4.11;95.73;99638.38;5100415;28;20452;-67
2021/12/16 01:03:43;;;;;;;27.17;21.03;;;5.70;94.00;;;4.18;95.71;99634.19;5084849;28;20459;-67
2021/12/16 01:34:06;;;;;;;24.30;20.00;;;5.70;94.00;;;4.34;94.79;99662.28;5086817;28;20464;-67
2021/12/16 01:37:01;;;;;;;24.67;19.87;;;5.70;94.00;;;4.24;95.49;99649.72;5089595;28;20479;-67
2021/12/16 01:42:36;;;;;;;25.70;21.10;;;5.60;95.10;;;4.30;96.09;99652.81;5059042;28;20538;-67
2021/12/16 01:50:52;;;;;;;23.70;19.70;;;5.70;95.00;;;4.22;95.68;99662.38;5027516;28;20933;-67
2021/12/16 01:53:48;;;;;;;29.50;23.07;;;5.60;94.60;;;4.28;95.58;99658.31;5027087;28;20454;-68
2021/12/16 01:56:22;;;;;;;25.87;21.40;;;5.60;95.80;;;4.25;95.87;99663.94;5064059;28;20816;-68
2021/12/16 01:58:51;;;;;;;28.63;22.07;;;5.60;95.50;;;4.44;94.54;99668.50;5085588;28;20505;-67
2021/12/16 02:01:27;;;;;;;26.30;21.00;;;5.70;94.60;;;4.52;94.09;99663.34;5088801;28;20480;-68
2021/12/16 02:04:01;;;;;;;25.50;20.47;;;5.80;93.80;;;4.51;93.76;99669.69;5088852;28;20464;-67
2021/12/16 02:06:47;;;;;;;28.43;22.90;;;5.80;93.10;;;4.49;94.43;99655.59;5088376;28;20950;-67
2021/12/16 02:09:29;;;;;;;28.63;23.53;;;5.80;93.90;;;4.37;94.75;99651.31;5088638;28;20482;-67
2021/12/16 02:12:03;;;;;;;26.33;21.47;;;5.70;93.90;;;4.36;95.21;99646.94;5089639;28;20801;-67
2021/12/16 02:34:02;;;;;;;28.50;22.70;;;5.60;95.50;;;4.24;95.86;99632.78;5089274;28;21027;-67
2021/12/16 02:36:39;;;;;;;34.63;26.40;;;5.60;95.20;;;3.96;96.97;99636.06;5089629;28;20942;-67
2021/12/16 02:39:15;;;;;;;31.33;25.10;;;5.50;96.40;;;4.15;96.80;99637.13;5085037;28;20467;-66
2021/12/16 02:41:45;;;;;;;32.93;23.10;;;5.50;96.80;;;4.23;97.29;99631.97;5086137;28;20462;-68
2021/12/16 02:44:24;;;;;;;30.27;23.37;;;5.50;97.20;;;4.05;95.87;99614.84;5091964;28;20488;-67
2021/12/16 02:49:40;;;;;;;32.63;24.53;;;5.60;96.20;;;4.22;96.06;99637.44;5098985;28;20995;-66
2021/12/16 02:52:09;;;;;;;28.90;22.43;;;5.60;95.80;;;4.06;96.78;99632.59;5082249;28;20456;-66
2021/12/16 02:54:37;;;;;;;31.93;23.87;;;5.50;95.90;;;4.05;96.93;99628.22;5080255;28;20453;-67
2021/12/16 02:57:05;;;;;;;31.50;24.50;;;5.50;96.60;;;4.10;97.41;99631.34;5087969;28;21025;-67
2021/12/16 02:59:33;;;;;;;34.07;23.97;;;5.40;97.10;;;4.08;98.01;99634.13;5087834;28;20555;-67
2021/12/16 03:02:07;;;;;;;31.07;22.47;;;5.40;97.80;;;4.14;97.30;99630.06;5083265;28;20803;-67
2021/12/16 03:04:36;;;;;;;32.47;23.83;;;5.50;98.00;;;4.18;97.40;99631.53;5092556;28;21010;-67
2021/12/16 03:07:06;;;;;;;30.67;23.00;;;5.50;99.00;;;4.13;97.09;99640.94;5087528;28;20457;-67
2021/12/16 03:10:05;;;;;;;35.17;25.20;;;5.50;98.00;;;4.02;98.79;99641.84;5088716;28;20472;-66
2021/12/16 03:12:55;;;;;;;33.90;24.23;;;5.50;99.90;;;4.00;99.57;99643.81;5090660;28;20893;-67
2021/12/16 03:15:36;;;;;;;33.70;24.60;;;5.40;99.90;;;4.02;98.45;99642.72;5084874;28;20464;-67
2021/12/16 03:18:11;;;;;;;32.80;24.33;;;5.50;99.90;;;4.03;98.53;99649.75;5087113;28;20472;-67
2021/12/16 03:20:43;;;;;;;31.47;24.00;;;5.50;99.20;;;4.13;98.46;99648.97;5088150;28;20463;-67
2021/12/16 03:23:35;;;;;;;30.80;22.80;;;5.50;99.90;;;4.22;97.24;99654.34;5087652;28;20468;-66
2021/12/16 03:26:47;;;;;;;29.00;23.20;;;5.50;99.00;;;4.14;97.47;99651.47;5093635;28;20529;-67
2021/12/16 03:34:36;;;;;;;30.57;22.73;;;5.70;97.20;;;4.39;97.01;99654.69;5085946;28;20444;-68
2021/12/16 03:37:14;;;;;;;28.07;21.87;;;5.70;97.10;;;4.00;96.88;99617.06;5084244;28;20467;-65
2021/12/16 03:39:46;;;;;;;30.67;23.67;;;5.60;95.60;;;4.24;96.47;99657.72;5084988;28;20517;-67
2021/12/16 03:42:18;;;;;;;29.37;22.70;;;5.60;96.40;;;4.18;96.68;99655.59;5088352;28;20583;-66
2021/12/16 03:44:54;;;;;;;30.97;23.63;;;5.60;96.50;;;4.14;97.03;99646.13;5083279;28;20499;-68
2021/12/16 03:47:34;;;;;;;29.60;21.87;;;5.50;97.20;;;4.18;96.72;99658.28;5086166;28;20463;-66
2021/12/16 03:50:05;;;;;;;31.17;21.83;;;5.50;96.50;;;3.94;97.13;99616.63;5089874;28;20568;-68
2021/12/16 03:52:32;;;;;;;29.53;23.13;;;5.60;97.10;;;4.24;97.13;99660.41;5085262;28;20527;-68
2021/12/16 03:55:00;;;;;;;28.57;21.93;;;5.60;97.30;;;4.28;96.13;99658.31;5088807;28;21061;-68
2021/12/16 03:57:30;;;;;;;29.10;21.00;;;5.60;95.20;;;4.26;96.57;99660.28;5082087;28;20534;-67
2021/12/16 04:00:00;;;;;;;28.87;21.60;;;5.60;95.90;;;4.24;97.00;99668.44;5086350;28;20467;-68
2021/12/16 04:02:31;;;;;;;29.10;21.70;;;5.60;96.10;;;4.24;96.72;99668.44;5088482;28;20448;-67
2021/12/16 04:05:00;;;;;;;27.40;21.30;;;5.60;96.00;;;4.13;96.75;99675.72;5086115;28;20463;-67
2021/12/16 04:07:31;;;;;;;31.10;21.67;;;5.60;95.40;;;4.23;97.21;99676.59;5081987;28;20578;-68
2021/12/16 04:09:59;;;;;;;26.60;20.63;;;5.60;96.50;;;4.28;95.93;99671.69;5086382;28;20566;-68
2021/12/16 04:12:28;;;;;;;27.00;20.63;;;5.60;95.00;;;4.43;95.27;99666.81;5088593;28;20492;-68
2021/12/16 04:15:00;;;;;;;28.87;20.60;;;5.70;95.20;;;4.30;95.85;99671.53;5084266;28;20464;-67
2021/12/16 04:17:31;;;;;;;27.37;20.63;;;5.70;94.90;;;4.28;95.85;99676.19;5091419;28;20463;-68
2021/12/16 04:19:59;;;;;;;24.50;19.23;;;5.60;95.00;;;4.25;95.66;99675.47;5098886;28;21245;-68
2021/12/16 04:22:32;;;;;;;25.63;19.57;;;5.70;94.30;;;4.41;94.99;99674.13;5083516;28;21101;-66
2021/12/16 04:25:03;;;;;;;28.03;21.17;;;5.70;94.80;;;4.33;95.12;99672.13;5089281;28;20460;-67
2021/12/16 04:27:35;;;;;;;28.20;20.83;;;5.60;94.80;;;4.30;95.56;99679.56;5084551;28;20479;-67
2021/12/16 04:30:06;;;;;;;28.60;21.23;;;5.70;94.50;;;4.38;95.60;99680.59;5085748;28;20480;-68
2021/12/16 04:32:34;;;;;;;29.43;21.03;;;5.70;94.40;;;4.37;95.91;99681.56;5087858;28;20463;-68
2021/12/16 04:35:01;;;;;;;27.57;20.90;;;5.70;94.90;;;4.36;94.83;99681.72;5086371;28;20453;-67
2021/12/16 04:37:28;;;;;;;27.13;20.53;;;5.70;94.40;;;4.22;96.11;99680.25;5085030;28;20909;-67
2021/12/16 04:39:55;;;;;;;26.90;20.10;;;5.60;94.50;;;4.34;95.35;99675.66;5085072;28;20468;-67
2021/12/16 04:42:25;;;;;;;26.37;20.30;;;5.70;95.10;;;4.24;94.63;99683.63;5084563;28;20456;-67
2021/12/16 04:44:52;;;;;;;27.70;20.70;;;5.60;93.80;;;4.24;96.01;99678.28;5085165;28;20455;-68
2021/12/16 04:47:21;;;;;;;26.07;20.90;;;5.60;94.90;;;4.46;94.12;99685.28;5086573;28;20858;-67
2021/12/16 04:49:48;;;;;;;28.53;21.40;;;5.70;94.20;;;4.38;94.54;99685.13;5096985;28;20586;-68
2021/12/16 04:52:20;;;;;;;28.57;23.07;;;5.70;94.00;;;4.16;95.62;99686.97;5083167;28;20469;-67
2021/12/16 04:54:47;;;;;;;29.53;21.27;;;5.60;94.10;;;4.39;94.88;99692.16;5085381;28;20497;-67
2021/12/16 04:57:15;;;;;;;26.73;19.30;;;5.70;94.60;;;4.60;93.95;99691.25;5084502;28;21030;-67
2021/12/16 04:59:42;;;;;;;26.07;21.13;;;5.80;94.00;;;4.48;94.38;99690.50;5094010;28;20825;-67
2021/12/16 05:02:14;;;;;;;27.60;19.93;;;5.80;93.40;;;4.41;94.59;99690.19;5090979;28;20988;-69
2021/12/16 05:04:44;;;;;;;29.70;20.57;;;5.70;93.70;;;4.34;95.22;99697.09;5087720;28;20444;-67
2021/12/16 05:07:12;;;;;;;28.50;21.30;;;5.80;93.90;;;4.22;96.99;99694.47;5088125;28;20460;-67
2021/12/16 05:12:26;;;;;;;29.60;21.63;;;5.70;95.60;;;4.31;97.84;99694.66;5085702;28;20472;-69
2021/12/16 05:14:54;;;;;;;26.60;20.77;;;5.60;98.30;;;4.78;97.09;99694.13;5097428;28;20459;-68
2021/12/16 05:17:28;;;;;;;29.83;20.90;;;5.90;99.90;;;4.37;95.76;99692.28;5085927;28;20463;-68
2021/12/16 05:20:01;;;;;;;30.37;22.13;;;5.90;94.10;;;4.22;96.63;99702.50;5081959;28;20455;-68
2021/12/16 05:25:23;;;;;;;32.67;23.20;;;5.80;99.90;;;4.47;95.79;99697.66;5092271;28;20470;-67
2021/12/16 05:27:50;;;;;;;30.63;23.77;;;5.80;94.90;;;4.35;95.39;99696.94;5078236;28;21073;-67
2021/12/16 05:30:17;;;;;;;33.50;22.27;;;5.70;94.00;;;4.37;95.99;99699.47;5088838;28;20572;-68
2021/12/16 05:32:45;;;;;;;31.57;22.17;;;5.70;94.30;;;4.26;96.00;99700.44;5100691;28;20826;-68
2021/12/16 05:35:17;;;;;;;31.27;23.27;;;5.70;94.10;;;4.30;95.71;99700.97;5086614;28;20452;-67
2021/12/16 05:37:45;;;;;;;35.00;24.00;;;5.70;94.30;;;4.17;96.32;99709.25;5079595;28;20476;-67
2021/12/16 05:40:16;;;;;;;36.60;24.47;;;5.60;95.90;;;4.13;97.07;99719.34;5090144;28;20491;-71
2021/12/16 05:42:44;;;;;;;32.50;23.57;;;5.60;96.20;;;4.21;96.49;99710.66;5081445;28;20464;-71
2021/12/16 05:45:12;;;;;;;32.77;22.90;;;5.60;95.50;;;4.15;97.03;99705.84;5088822;28;20543;-71
2021/12/16 05:47:40;;;;;;;33.50;22.97;;;5.60;96.30;;;4.14;97.14;99721.03;5090075;28;20566;-71
2021/12/16 05:50:09;;;;;;;38.20;25.73;;;5.60;96.40;;;4.16;97.54;99713.72;5093190;28;20842;-70
2021/12/16 05:52:38;;;;;;;31.27;22.30;;;5.60;96.60;;;4.10;96.55;99719.63;5095920;28;20542;-69
2021/12/16 05:55:07;;;;;;;33.53;24.87;;;5.50;95.70;;;4.03;96.79;99702.41;5091825;28;20512;-69
2021/12/16 05:57:35;;;;;;;37.80;24.07;;;5.50;95.90;;;4.13;95.55;99714.00;5089483;28;20488;-69
2021/12/16 06:00:05;;;;;;;39.93;25.87;;;5.60;94.70;;;4.12;96.52;99706.94;5094715;28;20939;-70
2021/12/16 06:02:34;;;;;;;37.20;25.33;;;5.60;95.20;;;4.16;96.29;99720.91;5091312;28;20844;-69
2021/12/16 06:05:01;;;;;;;36.73;25.30;;;5.60;94.70;;;4.58;96.14;99717.31;5103419;28;21016;-69
2021/12/16 06:07:28;;;;;;;30.77;22.40;;;5.90;96.90;;;4.95;93.95;99735.50;5098357;28;21016;-70
2021/12/16 06:09:56;;;;;;;28.53;21.03;;;6.10;93.70;;;5.19;92.69;99734.25;5092314;28;20501;-79
2021/12/16 06:12:25;;;;;;;30.87;21.93;;;6.30;93.10;;;5.31;92.48;99725.09;5088743;28;21030;-80
2021/12/16 06:15:12;;;;;;;28.83;20.90;;;6.50;93.10;;;5.40;90.32;99734.13;5082226;28;20452;-79
2021/12/16 06:28:47;;;;;;;26.17;20.20;;;6.30;89.00;;;4.94;91.09;99749.88;5088995;28;20464;-70
2021/12/16 06:31:16;;;;;;;29.40;21.30;;;6.30;89.80;;;4.94;91.18;99747.19;5089880;28;20475;-70
2021/12/16 06:33:43;;;;;;;31.40;22.20;;;6.30;90.50;;;4.95;91.17;99751.56;5094181;28;20822;-70
2021/12/16 06:36:11;;;;;;;29.50;20.63;;;6.30;90.60;;;4.92;91.46;99746.44;5089217;28;20543;-71
2021/12/16 06:38:38;;;;;;;27.83;19.90;;;6.30;90.60;;;4.85;91.93;99761.38;5085409;28;20495;-69
2021/12/16 06:41:06;;;;;;;26.13;19.13;;;6.20;90.70;;;4.91;91.72;99755.47;5091305;28;20547;-71
2021/12/16 06:43:35;;;;;;;29.93;21.67;;;6.20;90.80;;;5.00;91.24;99762.69;5090907;28;20476;-70
2021/12/16 06:46:09;;;;;;;28.70;21.50;;;6.20;91.20;;;5.01;91.05;99756.34;5088612;28;20452;-70
2021/12/16 06:48:39;;;;;;;30.87;22.63;;;6.30;90.40;;;4.77;92.20;99752.19;5101987;27;20458;-70
2021/12/16 06:51:10;;;;;;;26.97;20.93;;;6.20;91.00;;;4.58;93.21;99754.78;5087474;28;20479;-73
2021/12/16 06:53:48;;;;;;;30.80;22.57;;;6.10;91.40;;;4.01;93.35;99688.31;5082479;28;20529;-69
2021/12/16 06:56:22;;;;;;;28.43;21.57;;;6.00;91.70;;;4.36;93.82;99772.72;5084207;28;20551;-71
2021/12/16 06:59:01;;;;;;;27.63;20.63;;;5.80;92.10;;;4.90;94.38;99769.84;5097508;27;20463;-71
2021/12/16 07:01:37;;;;;;;31.20;22.30;;;6.10;94.20;;;4.84;92.90;99763.19;5084307;28;20460;-71
2021/12/16 07:04:06;;;;;;;29.57;20.97;;;6.10;92.30;;;4.53;92.51;99758.72;5086279;28;20450;-70
2021/12/16 07:06:36;;;;;;;32.50;22.73;;;6.10;90.70;;;4.64;92.38;99771.16;5087189;28;20555;-70
2021/12/16 07:09:11;;;;;;;31.03;20.43;;;6.10;91.20;;;4.75;92.41;99778.25;5088657;28;20884;-68
2021/12/16 07:11:41;;;;;;;29.20;21.27;;;6.10;91.80;;;4.71;92.20;99773.31;5088923;28;20471;-76
2021/12/16 07:14:13;;;;;;;27.40;20.10;;;6.00;91.60;;;4.62;91.90;99770.47;5091892;28;20872;-69
2021/12/16 07:16:40;;;;;;;28.40;21.37;;;6.10;91.20;;;4.62;91.82;99782.97;5094073;27;20464;-68
2021/12/16 07:19:09;;;;;;;30.47;21.43;;;6.00;91.30;;;4.68;92.93;99777.09;5086238;28;20466;-68
2021/12/16 07:21:38;;;;;;;29.40;21.20;;;6.00;91.70;;;4.73;92.31;99774.88;5089031;28;20549;-68
2021/12/16 07:24:07;;;;;;;29.33;21.50;;;6.00;91.50;;;4.68;92.61;99771.75;5076728;28;20496;-69
2021/12/16 07:26:34;;;;;;;31.73;22.97;;;6.00;91.90;;;4.81;91.25;99772.38;5084669;28;20443;-70
2021/12/16 07:29:05;;;;;;;26.93;20.00;;;6.10;91.10;;;4.80;92.33;99768.00;5082464;28;20549;-70
2021/12/16 07:31:33;;;;;;;28.67;21.43;;;6.10;91.50;;;4.67;92.83;99770.06;5082454;28;20478;-70
2021/12/16 07:34:01;;;;;;;28.47;21.67;;;6.10;91.30;;;4.70;91.85;99771.59;5105193;27;20444;-71
2021/12/16 07:36:30;;;;;;;30.30;21.90;;;6.10;91.20;;;4.54;93.34;99770.25;5099956;28;20436;-69
2021/12/16 07:38:57;;;;;;;28.90;20.83;;;6.00;91.70;;;4.81;91.47;99772.38;5084461;28;20786;-70
2021/12/16 07:41:31;;;;;;;29.27;21.10;;;6.10;91.00;;;4.73;91.71;99774.88;5083207;28;20575;-70
2021/12/16 07:44:09;;;;;;;30.23;20.70;;;6.10;90.80;;;4.76;92.12;99771.09;5081434;28;20471;-69
2021/12/16 07:46:39;;;;;;;27.50;19.60;;;6.10;91.20;;;4.71;92.28;99766.13;5084585;28;20453;-70
2021/12/16 07:49:10;;;;;;;28.70;20.67;;;6.10;90.90;;;4.62;91.58;99762.44;5082823;28;20479;-70
2021/12/16 07:51:38;;;;;;;31.40;21.40;;;6.10;90.50;;;4.44;93.04;99780.09;5082722;28;20464;-70
2021/12/16 07:54:06;;;;;;;25.90;19.73;;;5.90;91.70;;;4.43;93.26;99776.56;5069320;28;20451;-69
2021/12/16 07:56:34;;;;;;;30.53;21.57;;;5.90;91.80;;;4.71;91.77;99787.53;5076914;28;21050;-69
2021/12/16 07:59:03;;;;;;;27.63;20.70;;;6.00;91.00;;;4.87;91.29;99803.13;5083258;28;20582;-69
2021/12/16 08:01:31;;;;;;;29.13;21.57;;;6.10;91.20;;;4.62;91.68;99804.41;5084081;28;20448;-69
2021/12/16 08:03:59;;;;;;;29.13;20.07;;;6.10;90.50;;;4.54;91.78;99789.88;5086985;28;20483;-69
2021/12/16 08:06:31;;;;;;;25.80;18.67;;;6.10;90.80;;;4.80;90.76;99818.88;5088433;28;20448;-70
2021/12/16 08:09:04;;;;;;;29.03;18.83;;;6.10;90.40;;;4.92;89.43;99832.16;5086789;28;20518;-67
2021/12/16 08:11:35;;;;;;;30.30;19.73;;;6.20;89.30;;;4.74;90.57;99824.75;5101559;27;21552;-71
2021/12/16 08:14:03;;;;;;;29.10;20.77;;;6.20;90.00;;;4.82;91.28;99822.28;5091283;28;20559;-71
2021/12/16 08:16:31;;;;;;;27.17;19.70;;;6.10;90.60;;;4.59;90.71;99826.09;5085850;28;20452;-71
2021/12/16 08:18:59;;;;;;;27.93;19.57;;;6.10;90.20;;;4.56;91.98;99837.06;5085733;28;20559;-71
2021/12/16 08:21:29;;;;;;;26.33;19.53;;;6.00;90.80;;;4.64;91.72;99838.09;5086593;28;20538;-71
2021/12/16 08:23:57;;;;;;;27.30;20.07;;;6.00;91.10;;;4.76;91.05;99844.22;5084121;28;20464;-72
2021/12/16 08:26:24;;;;;;;26.70;20.10;;;6.10;91.10;;;4.74;91.35;99848.03;5093767;28;20495;-72
2021/12/16 08:28:51;;;;;;;26.47;19.40;;;6.10;91.20;;;4.94;91.05;99847.13;5082496;28;20496;-71
2021/12/16 08:31:19;;;;;;;28.20;20.27;;;6.20;90.60;;;4.76;90.96;99851.41;5084974;28;21052;-72
2021/12/16 08:33:47;;;;;;;28.40;19.70;;;6.20;90.50;;;4.86;91.69;99859.50;5081494;28;20947;-71
2021/12/16 08:36:17;;;;;;;26.00;19.77;;;6.20;90.90;;;4.82;91.08;99859.78;5086059;28;20955;-71
2021/12/16 08:38:45;;;;;;;25.80;19.00;;;6.20;90.40;;;4.99;89.19;99867.31;5082544;28;20456;-70
2021/12/16 08:41:17;;;;;;;24.53;17.73;;;6.30;88.80;;;4.90;89.75;99883.22;5083557;28;21024;-70
2021/12/16 08:43:45;;;;;;;23.87;18.10;;;6.30;88.40;;;5.05;90.43;99874.81;5082800;28;21267;-67
2021/12/16 08:46:16;;;;;;;23.63;17.60;;;6.30;90.00;;;5.05;89.55;99872.16;5089125;28;20487;-67
2021/12/16 08:48:45;;;;;;;26.93;19.40;;;6.30;89.50;;;4.91;89.81;99873.34;5084012;28;20531;-67
2021/12/16 08:51:17;;;;;;;27.00;19.27;;;6.30;88.90;;;4.98;90.58;99877.19;5083890;28;20464;-67
2021/12/16 08:53:44;;;;;;;24.30;18.83;;;6.30;90.30;;;5.16;89.54;99872.06;5085490;28;20483;-67
2021/12/16 08:56:12;;;;;;;26.23;18.30;;;6.40;89.30;;;5.29;89.07;99882.53;5083521;28;20478;-66
2021/12/16 08:58:40;;;;;;;26.63;18.80;;;6.50;89.10;;;5.25;88.42;99862.38;5082557;28;20475;-66
2021/12/16 09:01:17;;;;;;;25.80;18.37;;;6.50;87.20;;;5.20;88.19;99872.63;5077575;28;20457;-67
2021/12/16 09:03:44;;;;;;;27.60;19.70;;;6.50;86.80;;;5.32;88.10;99876.06;5080955;28;20495;-67
2021/12/16 09:06:12;;;;;;;31.27;20.20;;;6.60;87.20;;;5.34;87.02;99884.81;5084186;28;20483;-67
2021/12/16 09:08:41;;;;;;;30.33;21.07;;;6.60;86.60;;;5.39;88.46;99885.25;5102391;28;20903;-66
2021/12/16 09:11:10;;;;;;;26.07;19.90;;;6.60;87.20;;;5.24;88.69;99884.78;5080274;28;20888;-68
2021/12/16 09:13:40;;;;;;;27.63;19.93;;;6.60;86.90;;;5.24;89.16;99885.63;5085402;28;20532;-69
2021/12/16 09:16:13;;;;;;;26.23;18.83;;;6.60;87.30;;;5.54;87.10;99885.72;5084094;28;20468;-71
2021/12/16 09:18:42;;;;;;;30.57;20.27;;;6.80;86.00;;;5.42;87.18;99881.47;5080588;28;20466;-68
2021/12/16 09:21:14;;;;;;;28.00;20.67;;;6.80;85.50;;;5.38;87.63;99878.19;5088360;28;20463;-68
2021/12/16 09:23:46;;;;;;;30.37;20.10;;;6.70;86.00;;;5.60;87.94;99878.94;5095359;28;20542;-68
2021/12/16 09:26:15;;;;;;;28.27;20.67;;;6.90;86.80;;;5.68;86.51;99895.22;5098695;28;20457;-69
2021/12/16 09:28:43;;;;;;;25.13;19.27;;;6.90;85.30;;;5.71;86.92;99902.16;5091512;28;20483;-68
2021/12/16 09:31:13;;;;;;;28.77;20.00;;;6.90;86.00;;;5.75;86.30;99903.56;5098582;28;20467;-68
2021/12/16 09:33:43;;;;;;;31.47;20.43;;;7.00;85.80;;;5.99;84.75;99905.00;5089343;28;20490;-68
2021/12/16 09:36:13;;;;;;;25.33;19.03;;;7.20;84.30;;;6.03;83.64;99912.66;5090788;28;20539;-68
2021/12/16 09:38:43;;;;;;;26.00;19.87;;;7.30;83.20;;;5.73;84.52;99914.41;5085390;28;20540;-68
2021/12/16 09:41:12;;;;;;;32.00;18.70;;;7.10;82.60;;;5.92;85.81;99905.56;5103023;28;20453;-69
2021/12/16 09:43:43;;;;;;;27.17;18.40;;;7.20;84.60;;;6.00;86.75;99917.44;5090787;28;20597;-68
2021/12/16 09:46:14;;;;;;;24.47;17.70;;;7.30;85.80;;;6.00;86.64;99906.72;5092242;28;20487;-70
2021/12/16 09:48:43;;;;;;;26.83;19.93;;;7.30;86.00;;;6.06;85.02;99901.63;5091828;28;20978;-70
2021/12/16 09:51:16;;;;;;;26.20;19.63;;;7.40;84.20;;;6.17;84.24;99914.09;5091490;28;20544;-71
2021/12/16 09:53:45;;;;;;;29.23;20.40;;;7.40;83.50;;;6.06;84.10;99922.28;5089799;28;20447;-68
2021/12/16 09:56:13;;;;;;;23.50;18.47;;;7.40;83.10;;;6.05;83.73;99909.84;5099354;27;20492;-69
2021/12/16 09:58:45;;;;;;;24.43;19.00;;;7.40;82.40;;;5.82;83.82;99913.59;5093805;28;20553;-69
2021/12/16 10:01:14;;;;;;;25.50;19.30;;;7.30;82.20;;;5.71;84.64;99912.88;5097590;28;20969;-70
2021/12/16 10:03:46;;;;;;;29.03;19.67;;;7.10;82.60;;;5.51;85.75;99910.13;5084564;28;20917;-71
2021/12/16 10:06:14;;;;;;;27.57;20.20;;;7.00;83.40;;;5.57;85.91;99914.09;5084767;28;20463;-69
2021/12/16 10:08:46;;;;;;;30.93;20.83;;;7.00;83.70;;;5.59;86.54;99914.78;5088135;28;20887;-68
2021/12/16 10:11:15;;;;;;;27.50;19.80;;;6.90;84.60;;;5.85;85.70;99916.97;5087888;28;20951;-70
2021/12/16 10:13:48;;;;;;;29.77;20.87;;;7.00;84.40;;;5.81;85.75;99911.91;5087077;28;20466;-68
2021/12/16 10:19:00;;;;;;;32.33;19.70;;;7.10;84.00;;;5.94;84.95;99902.75;5085847;28;21099;-68
2021/12/16 10:21:28;;;;;;;32.37;20.17;;;7.10;83.90;;;5.84;85.70;99889.31;5090183;28;20495;-69
2021/12/16 10:23:56;;;;;;;30.30;20.90;;;7.20;84.20;;;6.03;85.56;99895.72;5085524;28;20636;-68
2021/12/16 10:26:27;;;;;;;28.03;21.77;;;7.20;84.30;;;6.03;84.98;99899.25;5087134;28;20483;-68
2021/12/16 10:28:59;;;;;;;34.13;21.63;;;7.20;83.90;;;5.81;86.16;99897.63;5088374;28;20468;-69
2021/12/16 10:31:30;;;;;;;34.20;21.83;;;7.20;84.20;;;5.75;86.68;99900.88;5105564;28;20473;-68
2021/12/16 10:34:00;;;;;;;30.70;21.80;;;7.10;84.50;;;6.05;85.20;99899.94;5089169;28;20533;-69
2021/12/16 10:36:32;;;;;;;30.47;21.80;;;7.20;84.00;;;6.03;84.59;99898.41;5097054;28;20488;-69
2021/12/16 10:39:05;;;;;;;34.57;22.10;;;7.30;83.30;;;6.02;84.90;99902.91;5083313;28;20628;-68
2021/12/16 10:41:36;;;;;;;32.23;21.83;;;7.30;83.50;;;5.90;85.37;99902.16;5091787;28;20462;-69
2021/12/16 10:44:08;;;;;;;29.30;21.40;;;7.30;83.40;;;5.98;85.67;99903.28;5088475;28;20464;-71
2021/12/16 10:46:41;;;;;;;32.60;22.77;;;7.30;84.00;;;5.74;86.34;99901.88;5089768;28;20546;-69
2021/12/16 10:49:11;;;;;;;35.60;21.70;;;7.10;83.90;;;5.61;87.64;99894.91;5092787;28;20487;-69
2021/12/16 10:51:42;;;;;;;30.40;22.27;;;7.00;84.90;;;5.71;87.17;99894.09;5101425;28;20574;-69
2021/12/16 10:54:20;;;;;;;33.40;22.20;;;7.10;85.30;;;5.78;87.49;99893.41;5091222;28;20462;-68
2021/12/16 10:57:00;;;;;;;31.07;21.93;;;7.10;86.00;;;5.89;86.92;99884.38;5080064;28;20512;-68
2021/12/16 10:59:35;;;;;;;32.60;22.40;;;7.20;85.30;;;5.94;86.46;99886.66;5088141;28;20448;-68
2021/12/16 11:02:10;;;;;;;37.47;24.77;;;7.20;85.10;;;6.07;87.47;99881.91;5086874;28;20539;-69
2021/12/16 11:04:44;;;;;;;33.77;22.40;;;7.30;86.00;;;6.18;87.13;99878.22;5094946;28;20535;-68
2021/12/16 11:07:21;;;;;;;33.97;22.60;;;7.40;85.60;;;6.15;86.15;99872.28;5087431;28;20550;-68
2021/12/16 11:10:00;;;;;;;33.37;22.53;;;7.50;84.70;;;6.09;87.06;99868.31;5089960;28;20468;-70
2021/12/16 11:12:41;;;;;;;34.43;22.30;;;7.50;85.30;;;6.21;87.26;99864.50;5102880;27;21096;-70
2021/12/16 11:15:20;;;;;;;35.80;22.40;;;7.50;86.20;;;6.19;87.90;99858.44;5087350;28;20529;-69
2021/12/16 11:17:51;;;;;;;34.40;23.53;;;7.50;86.60;;;6.36;86.85;99854.16;5083886;28;20456;-70
2021/12/16 11:20:28;;;;;;;33.30;23.90;;;7.60;86.10;;;6.23;88.31;99862.53;5086249;28;20484;-67
2021/12/16 11:23:00;;;;;;;33.67;24.20;;;7.60;86.90;;;6.50;87.06;99866.31;5076194;28;20511;-68
2021/12/16 11:25:33;;;;;;;32.00;22.43;;;7.70;86.40;;;6.65;85.81;99833.63;5084958;28;20467;-67
2021/12/16 11:28:12;;;;;;;32.87;22.77;;;7.90;85.30;;;7.02;82.96;99845.41;5086054;28;20496;-66
2021/12/16 11:30:44;;;;;;;34.90;22.13;;;8.20;83.10;;;7.16;81.10;99834.16;5085693;28;20455;-67
2021/12/16 11:33:34;;;;;;;29.17;21.87;;;8.40;82.10;;;6.87;83.55;99840.50;5081097;28;20484;-67
2021/12/16 11:36:10;;;;;;;29.63;21.20;;;8.30;82.40;;;7.30;81.05;99838.19;5086793;28;20480;-66
2021/12/16 11:38:41;;;;;;;34.03;22.50;;;8.50;81.80;;;7.27;81.99;99832.25;5079452;28;20887;-68
2021/12/16 11:41:29;;;;;;;28.87;19.67;;;8.50;81.90;;;7.36;80.31;99834.06;5081072;28;20460;-67
2021/12/16 11:44:16;;;;;;;29.33;20.50;;;8.50;81.20;;;7.05;80.78;99842.41;5065548;28;20452;-67
2021/12/16 11:46:48;;;;;;;23.60;17.67;;;8.40;80.50;;;7.04;81.25;99830.81;5099326;28;20803;-67
2021/12/16 11:49:22;;;;;;;29.43;20.10;;;8.40;80.90;;;7.09;81.00;99835.75;5084481;28;20452;-67
2021/12/16 11:51:56;;;;;;;32.70;21.00;;;8.40;80.80;;;6.90;81.37;99845.56;5080304;28;20885;-68
2021/12/16 11:54:27;;;;;;;27.40;19.30;;;8.30;80.80;;;6.97;81.55;99840.47;5083677;28;21087;-67
2021/12/16 11:57:01;;;;;;;26.17;19.40;;;8.20;81.20;;;7.05;81.03;99847.78;5084084;28;21227;-69
2021/12/16 11:59:32;;;;;;;27.17;18.00;;;8.30;80.90;;;7.32;80.19;99843.44;5082890;28;20469;-67
2021/12/16 12:02:00;;;;;;;33.90;21.60;;;8.50;80.40;;;7.48;79.48;99840.94;5078435;28;22582;-68
2021/12/16 12:04:32;;;;;;;30.30;21.13;;;8.70;80.10;;;7.46;80.03;99821.41;5098145;27;20491;-67
2021/12/16 12:07:00;;;;;;;31.13;21.57;;;8.70;80.10;;;7.27;79.89;99830.44;5083533;28;20560;-68
2021/12/16 12:09:38;;;;;;;30.10;21.37;;;8.70;79.60;;;7.42;79.64;99827.22;5082678;28;20495;-66
2021/12/16 12:12:08;;;;;;;28.50;21.27;;;8.70;79.50;;;7.52;79.21;99846.84;5081992;28;20471;-67
2021/12/16 12:14:37;;;;;;;28.73;19.87;;;8.70;79.60;;;7.68;78.82;99843.47;5082360;28;20528;-67
2021/12/16 12:17:09;;;;;;;31.40;21.53;;;8.80;79.90;;;7.74;78.92;99853.66;5083725;28;20927;-67
2021/12/16 12:19:44;;;;;;;28.30;20.40;;;8.80;79.90;;;7.69;78.47;99865.88;5082469;28;20453;-68
2021/12/16 12:22:11;;;;;;;28.00;20.92;;;8.90;79.50;;;7.43;78.48;99854.00;5099030;27;20433;-67
2021/12/16 12:24:44;;;;;;;31.50;21.87;;;8.80;79.30;;;7.19;80.09;99859.88;5081084;28;20247;-67
2021/12/16 12:27:18;;;;;;;28.63;20.87;;;8.60;79.60;;;7.17;81.70;99867.25;5085569;28;20504;-67
2021/12/16 12:29:49;;;;;;;29.83;22.20;;;8.50;80.70;;;7.35;80.35;99860.13;5081389;28;20457;-67
2021/12/16 12:32:20;;;;;;;28.83;21.63;;;8.50;80.30;;;7.34;80.46;99857.56;5081474;28;20471;-68
2021/12/16 12:34:50;;;;;;;31.47;22.60;;;8.60;80.40;;;7.22;81.64;99849.69;5077941;28;20452;-68